Time;durP1;ratioP1;P1;durP2;ratioP2;P2;SDS_P1;SDS_P2;PMS_P1;PMS_P2;Temp;Humidity;BMP_temperature;BMP_pressure;BME280_temperature;BME280_humidity;BME280_pressure;Samples;Min_cycle;Max_cycle;Signal;HPM_P1;HPM_P2
2023/08/19 00:00:39;;;;;;;;;;;28.40;65.80;;;28.56;42.43;98520.97;4950263;28;123190;-78
2023/08/19 00:03:44;;;;;;;;;;;28.40;65.90;;;28.53;41.88;98509.66;4945253;28;119389;-78
2023/08/19 00:07:02;;;;;;;;;;;28.40;66.00;;;28.45;42.32;98514.72;4966418;28;118928;-78
2023/08/19 00:10:06;;;;;;;;;;;28.30;66.10;;;28.38;42.34;98514.88;4961483;28;122884;-79
2023/08/19 00:13:16;;;;;;;;;;;28.20;66.20;;;28.30;42.54;98514.22;4971293;28;122138;-79
2023/08/19 00:15:46;;;;;;;;;;;28.20;66.50;;;28.30;42.66;98500.00;4919885;28;119261;-79
2023/08/19 00:18:27;;;;;;;;;;;28.10;66.80;;;28.28;42.72;98504.53;4891326;28;117820;-78
2023/08/19 00:20:53;;;;;;;;;;;28.10;67.10;;;28.28;42.81;98501.69;4865099;28;124254;-78
2023/08/19 00:23:24;;;;;;;;;;;28.10;67.20;;;28.24;42.69;98501.78;4901129;28;124039;-78
2023/08/19 00:26:05;;;;;;;;;;;28.10;67.30;;;28.18;42.68;98501.50;4955882;28;120363;-78
2023/08/19 00:29:15;;;;;;;;;;;28.00;67.30;;;28.13;42.71;98499.16;4964003;28;119284;-78
2023/08/19 00:32:25;;;;;;;;;;;27.90;67.30;;;28.09;42.86;98503.31;4986024;28;124707;-78
2023/08/19 00:34:53;;;;;;;;;;;27.90;67.40;;;28.07;42.85;98506.56;4976959;28;124721;-78
2023/08/19 00:37:45;;;;;;;;;;;27.90;67.60;;;28.02;42.88;98501.41;4975994;28;119461;-78
2023/08/19 00:40:17;;;;;;;;;;;27.90;67.80;;;28.01;43.24;98505.50;4968717;28;117961;-78
2023/08/19 00:42:43;;;;;;;;;;;27.80;68.00;;;27.99;43.17;98499.44;4980703;28;124591;-76
2023/08/19 00:45:15;;;;;;;;;;;27.80;68.20;;;27.96;43.59;98506.81;4983993;28;123993;-79
2023/08/19 00:48:18;;;;;;;;;;;27.80;68.50;;;27.90;43.43;98494.38;4995539;28;120042;-79
2023/08/19 00:50:54;;;;;;;;;;;27.70;68.60;;;27.89;43.46;98509.81;4970350;28;118540;-79
2023/08/19 00:53:24;;;;;;;;;;;27.70;68.80;;;27.89;43.42;98509.00;4971396;28;124059;-79
2023/08/19 00:56:05;;;;;;;;;;;27.60;69.00;;;27.85;43.80;98516.78;4976486;28;124333;-79
2023/08/19 00:59:16;;;;;;;;;;;27.60;69.20;;;27.80;43.61;98520.09;4983307;28;118659;-79
2023/08/19 01:02:25;;;;;;;;;;;27.60;69.40;;;27.77;43.84;98516.88;4965567;28;118609;-79
2023/08/19 01:05:09;;;;;;;;;;;27.60;69.70;;;27.73;43.84;98521.84;4903358;28;124481;-79
2023/08/19 01:08:02;;;;;;;;;;;27.50;69.70;;;27.70;43.83;98511.38;4959825;28;123140;-78
2023/08/19 01:10:58;;;;;;;;;;;27.50;69.80;;;27.67;43.92;98517.09;4946872;28;119966;-78
2023/08/19 01:17:11;;;;;;;;;;;27.40;70.20;;;27.55;44.35;98504.34;4967762;28;125405;-79
2023/08/19 01:19:39;;;;;;;;;;;27.40;70.50;;;27.54;44.70;98499.94;4937689;28;124164;-78
2023/08/19 01:22:07;;;;;;;;;;;27.40;70.80;;;27.52;44.69;98500.34;4947344;28;120782;-78
2023/08/19 01:25:06;;;;;;;;;;;27.30;71.00;;;27.48;44.61;98510.16;4968457;28;120326;-79
2023/08/19 01:27:40;;;;;;;;;;;27.30;71.20;;;27.47;44.90;98500.06;4942111;28;123738;-79
2023/08/19 01:30:15;;;;;;;;;;;27.30;71.50;;;27.41;45.15;98496.13;4945702;28;124528;-79
2023/08/19 01:33:01;;;;;;;;;;;27.20;71.80;;;27.37;45.42;98492.53;4972084;28;119644;-79
2023/08/19 01:36:04;;;;;;;;;;;27.20;72.00;;;27.29;45.47;98492.66;4961614;28;117611;-79
2023/08/19 01:39:05;;;;;;;;;;;27.10;72.30;;;27.24;45.65;98484.69;4953551;28;123648;-78
2023/08/19 01:41:46;;;;;;;;;;;27.10;72.60;;;27.19;45.69;98498.53;4945246;28;124004;-78
2023/08/19 01:44:21;;;;;;;;;;;26.80;72.70;;;27.16;46.13;98493.69;4949493;28;119620;-77
2023/08/19 01:47:21;;;;;;;;;;;27.00;73.10;;;27.11;45.96;98497.84;4964242;28;118763;-78
2023/08/19 01:50:02;;;;;;;;;;;26.90;73.30;;;27.06;46.11;98501.16;4955285;28;124826;-76
2023/08/19 01:52:39;;;;;;;;;;;26.90;73.60;;;27.04;46.18;98504.44;4964457;28;124878;-78
2023/08/19 01:55:17;;;;;;;;;;;26.90;73.90;;;27.00;46.20;98505.72;4965659;28;119427;-77
2023/08/19 01:58:01;;;;;;;;;;;26.80;74.10;;;26.96;46.72;98508.63;4935781;28;118888;-78
2023/08/19 02:00:39;;;;;;;;;;;26.80;74.40;;;26.95;46.64;98507.03;4946206;28;124197;-77
2023/08/19 02:03:08;;;;;;;;;;;26.80;74.70;;;26.95;46.85;98509.03;4965703;28;123671;-77
2023/08/19 02:05:34;;;;;;;;;;;26.70;74.90;;;26.92;47.04;98507.06;4986860;28;119168;-77
2023/08/19 02:08:03;;;;;;;;;;;26.70;75.10;;;26.92;46.73;98507.06;4974042;28;118738;-77
2023/08/19 02:11:19;;;;;;;;;;;26.70;75.40;;;26.84;46.97;98507.19;4973696;28;123646;-77
2023/08/19 02:14:01;;;;;;;;;;;26.70;75.60;;;26.83;46.61;98510.44;4989139;28;123947;-77
2023/08/19 02:16:43;;;;;;;;;;;26.60;75.70;;;26.82;46.91;98509.66;4976708;28;120449;-77
2023/08/19 02:19:24;;;;;;;;;;;26.60;76.00;;;26.80;47.06;98512.09;4970736;28;119599;-78
2023/08/19 02:21:57;;;;;;;;;;;26.50;76.10;;;26.79;47.01;98509.72;4979899;28;124220;-78
2023/08/19 02:24:44;;;;;;;;;;;26.50;76.30;;;26.76;46.92;98514.22;4976731;28;122940;-78
2023/08/19 02:27:49;;;;;;;;;;;26.50;76.50;;;26.72;47.30;98513.44;4978942;28;119166;-78
2023/08/19 02:30:15;;;;;;;;;;;26.50;76.60;;;26.71;47.42;98511.84;4982166;28;117902;-78
2023/08/19 02:32:47;;;;;;;;;;;26.50;76.90;;;26.71;47.01;98519.56;4969077;28;123820;-78
2023/08/19 02:35:35;;;;;;;;;;;26.50;77.00;;;26.66;47.55;98507.47;4980319;28;123679;-77
2023/08/19 02:42:21;;;;;;;;;;;26.40;77.40;;;26.59;47.75;98515.28;5001689;28;119491;-78
2023/08/19 02:44:48;;;;;;;;;;;26.40;77.60;;;26.57;47.52;98509.22;4954568;28;124252;-78
2023/08/19 02:51:25;;;;;;;;;;;26.30;77.90;;;26.49;47.75;98502.03;4962466;28;120169;-78
2023/08/19 02:53:56;;;;;;;;;;;26.30;78.10;;;26.47;47.79;98504.50;4948947;28;119028;-77
2023/08/19 02:56:34;;;;;;;;;;;26.20;78.30;;;26.45;47.74;98507.75;4960008;28;124282;-78
2023/08/19 02:59:03;;;;;;;;;;;26.20;78.50;;;26.45;47.96;98513.41;4928120;28;124745;-78
2023/08/19 03:02:09;;;;;;;;;;;26.20;78.70;;;26.40;47.94;98511.84;4949245;28;119321;-77
2023/08/19 03:04:41;;;;;;;;;;;26.20;78.90;;;26.40;47.78;98514.69;4952997;28;118581;-77
2023/08/19 03:07:24;;;;;;;;;;;26.20;79.10;;;26.35;47.83;98520.84;4947834;28;124128;-77
2023/08/19 03:10:23;;;;;;;;;;;26.20;79.30;;;26.32;48.46;98518.84;4941569;28;124000;-77
2023/08/19 03:13:35;;;;;;;;;;;26.10;79.40;;;26.28;48.44;98520.94;4945522;28;120444;-77
2023/08/19 03:16:14;;;;;;;;;;;26.10;79.50;;;26.26;48.50;98517.72;4944459;28;121267;-78
2023/08/19 03:18:44;;;;;;;;;;;26.00;79.70;;;26.24;48.40;98525.84;4929470;28;122201;-78
2023/08/19 03:21:10;;;;;;;;;;;26.00;79.80;;;26.23;48.55;98515.75;4956518;28;123516;-78
2023/08/19 03:23:36;;;;;;;;;;;26.00;80.00;;;26.21;48.10;98509.72;4931555;28;119043;-78
2023/08/19 03:26:11;;;;;;;;;;;24.60;79.00;;;26.20;48.72;98525.09;4965438;28;118658;-78
2023/08/19 03:28:44;;;;;;;;;;;26.00;81.00;;;26.17;48.51;98512.59;4949113;28;124548;-79
2023/08/19 03:31:15;;;;;;;;;;;25.90;80.30;;;26.14;48.67;98504.94;4969866;28;124539;-78
2023/08/19 03:33:45;;;;;;;;;;;25.90;80.50;;;26.14;48.77;98515.47;4931136;28;119240;-78
2023/08/19 03:36:21;;;;;;;;;;;25.90;80.70;;;26.11;48.69;98511.44;4953585;28;118739;-78
2023/08/19 03:38:47;;;;;;;;;;;25.90;80.90;;;26.09;48.56;98510.28;4940155;28;123882;-78
2023/08/19 03:41:31;;;;;;;;;;;25.80;81.00;;;26.05;49.03;98515.19;4948808;28;123946;-78
2023/08/19 03:44:00;;;;;;;;;;;25.80;81.20;;;26.04;48.90;98514.38;4948181;28;119699;-78
2023/08/19 03:46:26;;;;;;;;;;;25.80;81.40;;;26.03;49.12;98509.13;4954082;28;118754;-78
2023/08/19 03:49:02;;;;;;;;;;;25.80;81.60;;;26.00;49.07;98517.25;4939294;28;123977;-78
2023/08/19 03:51:56;;;;;;;;;;;25.70;81.70;;;25.99;49.15;98521.31;4955403;28;123883;-78
2023/08/19 03:54:28;;;;;;;;;;;25.70;81.80;;;25.96;49.14;98516.50;4977868;28;118349;-78
2023/08/19 03:57:03;;;;;;;;;;;25.70;82.00;;;25.94;49.53;98512.47;4972660;28;119299;-78
2023/08/19 03:59:35;;;;;;;;;;;25.70;82.10;;;25.93;49.27;98517.34;4970709;28;124299;-78
2023/08/19 04:02:10;;;;;;;;;;;25.70;82.30;;;25.90;49.53;98514.53;4975265;28;124153;-78
2023/08/19 04:05:00;;;;;;;;;;;25.70;82.50;;;25.85;49.53;98513.00;4970098;28;122008;-79
2023/08/19 04:08:07;;;;;;;;;;;25.60;82.70;;;25.78;49.29;98516.66;4993182;28;119722;-78
2023/08/19 04:10:33;;;;;;;;;;;25.60;82.90;;;25.79;49.79;98514.63;4981381;28;124301;-77
2023/08/19 04:13:12;;;;;;;;;;;25.50;83.10;;;25.77;49.35;98517.91;4971051;28;123842;-78
2023/08/19 04:19:23;;;;;;;;;;;25.50;83.40;;;25.71;49.51;98511.13;4987441;28;120010;-78
2023/08/19 04:22:10;;;;;;;;;;;25.50;83.50;;;25.71;49.77;98521.59;4996211;28;123831;-78
2023/08/19 04:27:59;;;;;;;;;;;25.40;83.80;;;25.64;49.84;98528.16;4991456;28;120003;-79
2023/08/19 04:33:17;;;;;;;;;;;25.40;84.20;;;25.62;49.61;98541.91;4989605;28;124314;-78
2023/08/19 04:39:17;;;;;;;;;;;25.30;84.40;;;25.56;49.75;98535.91;4947977;28;120013;-77
2023/08/19 04:42:30;;;;;;;;;;;25.30;84.50;;;25.55;49.91;98548.47;4930083;28;118130;-77
2023/08/19 04:45:16;;;;;;;;;;;25.30;84.60;;;25.54;50.45;98546.03;4889766;28;124421;-78
2023/08/19 04:47:43;;;;;;;;;;;25.30;84.90;;;25.55;50.44;98537.16;4890948;28;124070;-77
2023/08/19 04:51:06;;;;;;;;;;;25.30;85.10;;;25.52;50.26;98543.66;4900495;28;118414;-78
2023/08/19 04:53:50;;;;;;;;;;;25.30;85.30;;;25.53;50.46;98538.78;4927602;28;118411;-78
2023/08/19 04:56:19;;;;;;;;;;;25.30;85.50;;;25.54;50.51;98534.72;4902239;28;124138;-78
2023/08/19 04:59:00;;;;;;;;;;;25.20;85.50;;;25.55;50.28;98542.00;4913126;28;123602;-78
2023/08/19 05:08:02;;;;;;;;;;;25.20;85.50;;;25.56;49.85;98552.91;4889551;28;124963;-78
2023/08/19 05:11:05;;;;;;;;;;;25.20;85.60;;;25.61;49.70;98554.47;4864520;28;124025;-77
2023/08/19 05:13:32;;;;;;;;;;;25.30;85.70;;;25.65;49.82;98562.91;4873146;28;119143;-77
2023/08/19 05:16:04;;;;;;;;;;;25.30;85.50;;;25.67;49.29;98555.63;4877611;28;117748;-77
2023/08/19 05:18:49;;;;;;;;;;;25.30;85.40;;;25.70;49.83;98560.44;4919097;28;124160;-77
2023/08/19 05:21:15;;;;;;;;;;;25.30;85.40;;;25.73;49.78;98558.78;4920915;28;124496;-77
2023/08/19 05:27:37;;;;;;;;;;;25.40;85.40;;;25.76;49.49;98563.59;4957920;28;118988;-77
2023/08/19 05:30:07;;;;;;;;;;;25.40;85.50;;;25.80;49.48;98564.38;4972769;28;123859;-77
2023/08/19 05:32:33;;;;;;;;;;;25.50;85.50;;;25.82;49.37;98561.94;4949502;28;123516;-77
2023/08/19 05:35:06;;;;;;;;;;;25.50;85.40;;;25.85;49.17;98551.84;4975255;28;118719;-78
2023/08/19 05:37:32;;;;;;;;;;;25.50;85.40;;;25.90;49.15;98554.16;4951452;28;118908;-78
2023/08/19 05:39:59;;;;;;;;;;;25.50;85.20;;;25.93;49.00;98556.97;4968374;28;124370;-78
2023/08/19 05:42:46;;;;;;;;;;;25.50;85.20;;;25.96;48.92;98553.31;4967363;28;123982;-78
2023/08/19 05:45:18;;;;;;;;;;;25.50;85.20;;;26.01;48.90;98554.88;4961169;28;119230;-78
2023/08/19 05:48:06;;;;;;;;;;;25.60;85.20;;;26.04;48.43;98556.84;4963687;28;118783;-78
2023/08/19 05:54:18;;;;;;;;;;;25.70;85.10;;;26.14;48.34;98560.75;4955194;28;123221;-78
2023/08/19 05:56:54;;;;;;;;;;;25.70;84.90;;;26.18;48.62;98570.03;4945439;28;120497;-78
2023/08/19 05:59:45;;;;;;;;;;;25.70;84.70;;;26.20;47.98;98576.88;4903797;28;119902;-78
2023/08/19 06:03:06;;;;;;;;;;;25.80;84.60;;;26.23;47.81;98586.56;4924628;28;124030;-77
2023/08/19 06:05:43;;;;;;;;;;;25.80;84.40;;;26.30;47.74;98582.81;4908777;28;123102;-78
2023/08/19 06:08:18;;;;;;;;;;;25.80;84.40;;;26.36;47.64;98581.94;4923855;28;120061;-78
2023/08/19 06:11:08;;;;;;;;;;;25.90;84.30;;;26.42;47.55;98588.75;4910806;28;119262;-77
2023/08/19 06:14:20;;;;;;;;;;;26.00;84.30;;;26.48;47.89;98579.78;4925518;28;123185;-78
2023/08/19 06:17:30;;;;;;;;;;;26.00;84.80;;;26.56;47.59;98592.63;4908373;28;123850;-77
2023/08/19 06:20:50;;;;;;;;;;;26.10;84.10;;;26.61;47.65;98583.66;4943360;28;121339;-78
2023/08/19 06:23:22;;;;;;;;;;;26.10;84.10;;;26.67;47.10;98587.63;4934985;28;118697;-77
2023/08/19 06:26:13;;;;;;;;;;;26.20;83.90;;;26.70;47.47;98589.59;4916295;28;124071;-78
2023/08/19 06:28:49;;;;;;;;;;;26.20;83.70;;;26.81;47.07;98597.94;4915042;28;123011;-78
2023/08/19 06:31:24;;;;;;;;;;;26.30;83.70;;;26.88;47.13;98592.97;4916521;28;118851;-78
2023/08/19 06:34:38;;;;;;;;;;;26.30;83.60;;;26.96;47.08;98596.50;4930002;28;118594;-78
2023/08/19 06:37:36;;;;;;;;;;;26.40;83.40;;;27.07;46.76;98593.50;4926511;28;122715;-78
2023/08/19 06:43:57;;;;;;;;;;;26.60;83.20;;;27.25;46.53;98608.25;4896944;28;120397;-78
2023/08/19 06:46:23;;;;;;;;;;;26.70;83.00;;;27.36;46.12;98607.28;4902630;28;116894;-78
2023/08/19 06:48:56;;;;;;;;;;;26.80;83.00;;;27.43;46.09;98604.31;4888119;28;124072;-78
2023/08/19 06:51:24;;;;;;;;;;;26.90;82.90;;;27.49;45.83;98611.91;4899342;28;123941;-78
2023/08/19 06:53:59;;;;;;;;;;;26.90;82.70;;;27.58;45.86;98610.56;4900467;28;119690;-78
2023/08/19 06:56:47;;;;;;;;;;;27.00;82.70;;;27.65;46.02;98616.09;4920028;28;119247;-78
2023/08/19 06:59:52;;;;;;;;;;;27.10;82.60;;;27.74;45.62;98607.81;4913652;28;124492;-78
2023/08/19 07:02:30;;;;;;;;;;;27.10;82.40;;;27.84;45.31;98612.53;4924567;28;122824;-78
2023/08/19 07:05:46;;;;;;;;;;;27.30;82.10;;;27.93;45.05;98614.81;4889713;28;118477;-78
2023/08/19 07:08:24;;;;;;;;;;;27.30;81.80;;;28.03;44.89;98608.13;4903701;28;117751;-78
2023/08/19 07:11:04;;;;;;;;;;;27.40;81.50;;;28.14;45.03;98611.56;4926178;28;125258;-78
2023/08/19 07:19:54;;;;;;;;;;;27.70;81.70;;;28.44;44.32;98620.31;4888504;28;119561;-78
2023/08/19 07:29:11;;;;;;;;;;;28.00;80.60;;;28.67;44.04;98614.56;4891202;28;119727;-78
2023/08/19 07:31:53;;;;;;;;;;;28.10;80.60;;;28.73;44.02;98615.63;4916258;28;118322;-77
2023/08/19 07:34:19;;;;;;;;;;;28.10;80.40;;;28.81;44.16;98621.97;4926249;28;123835;-78
2023/08/19 07:36:45;;;;;;;;;;;28.20;80.50;;;28.88;43.97;98621.78;4932732;28;123524;-78
2023/08/19 07:39:18;;;;;;;;;;;28.30;80.30;;;28.94;43.92;98625.72;4926109;28;118286;-77
2023/08/19 07:42:09;;;;;;;;;;;28.30;80.20;;;28.99;43.61;98630.91;4964143;28;118456;-77
2023/08/19 07:44:35;;;;;;;;;;;28.40;80.10;;;29.07;43.77;98631.56;4981817;28;124262;-78
2023/08/19 07:47:17;;;;;;;;;;;28.40;79.90;;;29.13;43.29;98631.84;4968497;28;124079;-78
2023/08/19 07:49:56;;;;;;;;;;;28.50;79.70;;;29.18;43.46;98628.47;4969278;28;120454;-79
2023/08/19 07:52:24;;;;;;;;;;;28.60;79.60;;;29.26;43.33;98629.91;4965551;28;119538;-78
2023/08/19 07:55:00;;;;;;;;;;;28.60;79.30;;;29.36;42.67;98628.81;4968507;28;124242;-78
2023/08/19 07:58:17;;;;;;;;;;;28.70;79.00;;;29.45;42.52;98636.75;4974389;28;122949;-78
2023/08/19 08:00:43;;;;;;;;;;;28.80;78.70;;;29.56;42.51;98637.28;4978222;28;118448;-79
2023/08/19 08:03:32;;;;;;;;;;;28.90;78.50;;;29.64;42.50;98643.63;4978527;28;118252;-78
2023/08/19 08:06:11;;;;;;;;;;;29.00;78.30;;;29.72;42.30;98642.19;4989290;28;124806;-78
2023/08/19 08:12:00;;;;;;;;;;;29.20;77.70;;;29.89;41.51;98640.13;5005244;28;119741;-79
2023/08/19 08:14:35;;;;;;;;;;;29.30;77.40;;;29.97;41.31;98637.88;4995587;28;119047;-78
2023/08/19 08:17:08;;;;;;;;;;;29.40;76.70;;;30.02;41.32;98631.66;4999465;28;124249;-78
2023/08/19 08:19:35;;;;;;;;;;;29.40;76.30;;;30.09;41.08;98629.41;4962847;28;123648;-78
2023/08/19 08:22:10;;;;;;;;;;;29.50;76.20;;;30.19;41.01;98638.09;4978131;28;119162;-78
2023/08/19 08:24:42;;;;;;;;;;;29.60;75.90;;;30.21;40.47;98630.69;4986409;28;117928;-79
2023/08/19 08:27:13;;;;;;;;;;;29.70;75.50;;;30.27;40.46;98628.91;4956809;28;123286;-78
2023/08/19 08:29:45;;;;;;;;;;;29.70;75.50;;;30.34;40.89;98628.72;4968336;28;123881;-80
2023/08/19 08:33:11;;;;;;;;;;;29.80;76.10;;;30.42;40.97;98619.97;4986033;28;119256;-79
2023/08/19 08:35:58;;;;;;;;;;;29.80;75.30;;;30.52;40.48;98619.66;4958680;28;118642;-79
2023/08/19 08:38:24;;;;;;;;;;;29.90;75.40;;;30.60;40.16;98620.22;4929779;28;122733;-78
2023/08/19 08:41:48;;;;;;;;;;;30.00;74.80;;;30.66;39.63;98624.13;4933320;28;123702;-78
2023/08/19 08:44:36;;;;;;;;;;;30.10;74.10;;;30.70;39.26;98619.13;4958429;28;120813;-78
2023/08/19 08:47:13;;;;;;;;;;;30.20;73.20;;;30.76;38.43;98614.47;4952745;28;119884;-77
2023/08/19 08:49:55;;;;;;;;;;;30.20;72.30;;;30.80;38.29;98609.47;4951928;28;122494;-78
2023/08/19 08:52:30;;;;;;;;;;;30.30;71.70;;;30.88;38.40;98614.97;4959290;28;124300;-78
2023/08/19 08:55:06;;;;;;;;;;;30.30;70.90;;;30.94;37.79;98619.63;4967235;28;119446;-79
2023/08/19 08:58:17;;;;;;;;;;;30.40;70.80;;;31.00;37.68;98608.44;4950432;28;118171;-78
2023/08/19 09:01:17;;;;;;;;;;;30.50;70.20;;;31.10;37.40;98621.56;4925747;28;124924;-79
2023/08/19 09:04:12;;;;;;;;;;;30.50;69.10;;;31.16;36.44;98616.09;4918829;28;124062;-78
2023/08/19 09:07:07;;;;;;;;;;;30.60;67.90;;;31.22;36.14;98614.28;4967009;28;119523;-78
2023/08/19 09:10:46;;;;;;;;;;;30.60;66.70;;;31.26;35.41;98615.75;4960560;28;117951;-78
2023/08/19 09:14:11;;;;;;;;;;;30.70;66.20;;;31.35;36.08;98615.03;4866956;28;123116;-78
2023/08/19 09:16:41;;;;;;;;;;;30.80;66.30;;;31.47;34.79;98616.34;4889114;28;123075;-79
2023/08/19 09:19:07;;;;;;;;;;;30.90;65.40;;;31.54;34.50;98612.44;4895315;28;119693;-78
2023/08/19 09:21:43;;;;;;;;;;;31.00;64.20;;;31.58;34.08;98611.06;4873253;28;118481;-78
2023/08/19 09:24:34;;;;;;;;;;;31.00;63.20;;;31.61;33.97;98618.69;4910435;28;124177;-78
2023/08/19 09:27:59;;;;;;;;;;;31.10;63.10;;;31.65;33.93;98622.25;4924425;28;123804;-78
2023/08/19 09:30:35;;;;;;;;;;;31.20;62.90;;;31.74;33.65;98615.81;4901327;28;119382;-78
2023/08/19 09:33:43;;;;;;;;;;;31.20;62.50;;;31.82;33.58;98613.53;4892386;28;119924;-79
2023/08/19 09:36:30;;;;;;;;;;;31.30;62.40;;;31.88;33.69;98611.66;4877464;28;124113;-79
2023/08/19 09:39:06;;;;;;;;;;;31.30;62.30;;;31.96;33.42;98613.03;4854626;28;124102;-78
2023/08/19 09:41:32;;;;;;;;;;;31.40;62.00;;;32.04;34.03;98620.09;4871579;28;120348;-79
2023/08/19 09:44:29;;;;;;;;;;;31.50;61.80;;;32.08;33.77;98615.06;4840601;28;119719;-79
2023/08/19 09:47:08;;;;;;;;;;;31.50;61.80;;;32.14;33.80;98609.53;4847033;29;123720;-79
2023/08/19 09:49:41;;;;;;;;;;;31.60;61.70;;;32.20;34.18;98610.53;4842759;29;123698;-79
2023/08/19 09:52:19;;;;;;;;;;;31.70;62.70;;;32.25;34.20;98618.53;4832457;29;119408;-79
2023/08/19 09:55:07;;;;;;;;;;;31.70;62.70;;;32.31;34.37;98615.88;4833698;29;118665;-79
2023/08/19 09:57:34;;;;;;;;;;;31.70;62.70;;;32.37;33.75;98608.28;4819317;29;123750;-79
2023/08/19 10:00:12;;;;;;;;;;;31.80;62.20;;;32.44;34.28;98612.94;4839634;29;123168;-78
2023/08/19 10:02:38;;;;;;;;;;;31.80;62.90;;;32.48;34.99;98620.16;4833272;29;119390;-80
2023/08/19 10:05:25;;;;;;;;;;;31.90;63.30;;;32.50;35.02;98611.88;4840954;28;119139;-79
2023/08/19 10:08:21;;;;;;;;;;;32.00;63.80;;;32.57;34.78;98619.41;4916394;28;123744;-79
2023/08/19 10:10:50;;;;;;;;;;;32.00;63.60;;;32.61;34.59;98614.34;4891292;28;123421;-79
2023/08/19 10:13:23;;;;;;;;;;;32.10;63.40;;;32.67;35.01;98620.25;4949721;28;119671;-78
2023/08/19 10:16:09;;;;;;;;;;;32.20;63.40;;;32.74;35.29;98614.25;4969998;28;117676;-78
2023/08/19 10:18:58;;;;;;;;;;;32.20;63.50;;;32.79;34.51;98614.44;4966257;28;123417;-78
2023/08/19 10:21:45;;;;;;;;;;;32.30;63.10;;;32.83;34.22;98617.16;4982778;28;123478;-78
2023/08/19 10:24:12;;;;;;;;;;;32.30;62.60;;;32.90;33.57;98616.91;4974797;28;120064;-78
2023/08/19 10:27:27;;;;;;;;;;;32.40;61.70;;;32.94;33.74;98611.03;5002651;28;118823;-78
2023/08/19 10:30:31;;;;;;;;;;;32.40;60.90;;;32.98;33.16;98618.22;4973272;28;124385;-79
2023/08/19 10:33:05;;;;;;;;;;;32.50;60.80;;;33.04;32.42;98615.56;4975367;28;123363;-78
2023/08/19 10:36:25;;;;;;;;;;;32.50;59.60;;;33.10;32.73;98612.88;4981905;28;121005;-78
2023/08/19 10:39:36;;;;;;;;;;;32.60;59.40;;;33.15;32.29;98618.00;4999762;28;119731;-79
2023/08/19 10:42:13;;;;;;;;;;;32.60;59.40;;;33.23;32.97;98613.56;4968864;28;124405;-79
2023/08/19 10:47:45;;;;;;;;;;;32.80;59.20;;;33.37;32.50;98615.84;4969375;28;119964;-79
2023/08/19 10:50:20;;;;;;;;;;;32.80;58.90;;;33.43;32.18;98611.09;4984738;28;119477;-79
2023/08/19 10:53:24;;;;;;;;;;;32.90;58.80;;;33.52;31.95;98609.53;4968329;28;124157;-79
2023/08/19 10:56:14;;;;;;;;;;;33.00;58.20;;;33.59;32.28;98609.25;4996981;28;124065;-79
2023/08/19 10:58:45;;;;;;;;;;;33.10;58.50;;;33.70;31.61;98605.94;4973380;28;120897;-79
2023/08/19 11:02:04;;;;;;;;;;;33.10;57.80;;;33.76;31.64;98610.56;4977275;28;118133;-79
2023/08/19 11:04:50;;;;;;;;;;;33.20;57.60;;;33.82;31.02;98607.84;4975012;28;124022;-79
2023/08/19 11:07:24;;;;;;;;;;;33.30;56.80;;;33.94;30.71;98606.13;4965295;28;124409;-79
2023/08/19 11:10:00;;;;;;;;;;;33.40;56.80;;;33.99;30.25;98603.41;4972001;28;119328;-79
2023/08/19 11:12:26;;;;;;;;;;;33.50;55.60;;;34.08;30.36;98600.56;4973931;28;118755;-79
2023/08/19 11:15:24;;;;;;;;;;;33.60;54.90;;;34.18;30.45;98603.44;4975022;28;124267;-78
2023/08/19 11:17:59;;;;;;;;;;;33.70;55.10;;;34.33;29.35;98600.72;5002484;28;123828;-78
2023/08/19 11:20:47;;;;;;;;;;;33.80;54.30;;;34.46;29.41;98595.59;5001603;28;119535;-79
2023/08/19 11:24:01;;;;;;;;;;;33.90;53.60;;;34.59;28.70;98599.13;4991458;28;117816;-79
2023/08/19 11:30:10;;;;;;;;;;;34.10;53.20;;;34.91;28.13;98583.22;4992180;28;124553;-80
2023/08/19 11:33:01;;;;;;;;;;;34.30;51.40;;;35.07;27.00;98587.03;4964825;28;119819;-80
2023/08/19 11:35:46;;;;;;;;;;;34.40;49.90;;;35.19;26.04;98586.78;4988689;28;119853;-79
2023/08/19 11:38:27;;;;;;;;;;;34.60;48.30;;;35.31;26.48;98584.19;4988948;28;124797;-79
2023/08/19 11:40:54;;;;;;;;;;;34.70;48.70;;;35.46;26.20;98582.19;5013353;28;123953;-79
2023/08/19 11:43:55;;;;;;;;;;;34.80;49.10;;;35.56;26.05;98571.44;4982966;28;119320;-79
2023/08/19 11:50:34;;;;;;;;;;;35.00;46.80;;;35.81;25.69;98575.91;4973508;28;124718;-79
2023/08/19 11:53:06;;;;;;;;;;;35.20;47.40;;;35.98;25.85;98579.94;4923062;28;123048;-79
2023/08/19 11:59:13;;;;;;;;;;;35.40;46.30;;;36.33;25.66;98587.97;4387346;28;16112422;-80
2023/08/19 12:02:38;;;;;;;;;;;35.60;46.30;;;36.47;24.67;98595.81;4963356;28;120558;-80
2023/08/19 12:05:38;;;;;;;;;;;35.70;45.20;;;36.60;25.03;98598.44;4965511;28;119024;-79
2023/08/19 12:08:41;;;;;;;;;;;35.90;45.90;;;36.75;24.82;98600.50;4950556;28;124224;-79
2023/08/19 12:11:41;;;;;;;;;;;36.00;45.70;;;36.85;24.34;98599.13;4967895;28;123345;-80
2023/08/19 12:14:38;;;;;;;;;;;36.20;44.80;;;36.89;24.47;98599.69;4981467;28;118075;-80
2023/08/19 12:17:06;;;;;;;;;;;36.20;44.30;;;36.99;23.99;98603.28;4980735;28;119082;-79
2023/08/19 12:19:49;;;;;;;;;;;36.30;44.30;;;37.11;23.97;98605.09;4946445;28;124338;-80
2023/08/19 12:22:44;;;;;;;;;;;36.40;44.10;;;37.22;24.17;98601.59;4941712;28;123180;-79
2023/08/19 12:28:08;;;;;;;;;;;36.70;44.20;;;37.53;23.85;98609.66;4948498;28;118586;-80
2023/08/19 12:30:40;;;;;;;;;;;36.80;43.60;;;37.66;23.21;98610.09;4944845;28;123917;-80
2023/08/19 12:33:06;;;;;;;;;;;36.90;42.80;;;37.73;23.25;98615.47;4970697;28;123834;-80
2023/08/19 12:35:46;;;;;;;;;;;36.90;42.50;;;37.76;23.25;98611.56;4947082;28;119609;-79
2023/08/19 12:38:26;;;;;;;;;;;37.00;42.40;;;37.83;23.41;98609.53;4959529;28;118458;-80
2023/08/19 12:41:25;;;;;;;;;;;37.10;42.90;;;37.95;23.49;98603.41;4980119;28;124239;-80
2023/08/19 12:43:58;;;;;;;;;;;37.20;42.80;;;38.06;23.19;98614.34;4996157;28;123333;-80
2023/08/19 12:46:54;;;;;;;;;;;37.40;42.40;;;38.15;23.91;98610.50;4988407;28;119547;-80
2023/08/19 12:49:30;;;;;;;;;;;37.50;43.30;;;38.17;24.20;98614.47;5003842;28;118589;-80
2023/08/19 12:52:42;;;;;;;;;;;37.60;44.00;;;38.12;24.73;98618.06;4986751;28;124540;-79
2023/08/19 12:55:34;;;;;;;;;;;37.60;44.40;;;38.18;24.92;98626.78;5002279;28;124095;-80
2023/08/19 13:01:45;;;;;;;;;;;37.70;44.20;;;38.16;24.26;98624.44;4941628;28;120420;-80
2023/08/19 13:04:13;;;;;;;;;;;37.70;44.40;;;38.13;24.86;98631.22;4926115;28;123994;-80
2023/08/19 13:06:47;;;;;;;;;;;37.70;44.30;;;38.11;24.62;98639.59;4934806;28;123871;-80
2023/08/19 13:09:31;;;;;;;;;;;37.70;44.10;;;38.01;24.37;98636.03;4947653;28;119720;-80
2023/08/19 13:12:07;;;;;;;;;;;37.70;43.40;;;37.89;24.34;98639.28;4941556;28;117927;-80
2023/08/19 13:14:36;;;;;;;;;;;37.60;43.20;;;37.77;24.08;98656.41;4926891;28;123607;-80
2023/08/19 13:17:24;;;;;;;;;;;37.50;42.50;;;37.63;24.18;98645.72;4939073;28;123958;-80
2023/08/19 13:19:54;;;;;;;;;;;37.50;42.50;;;37.57;24.42;98653.50;4941825;28;119395;-80
2023/08/19 13:22:47;;;;;;;;;;;37.50;42.80;;;37.43;24.41;98658.00;4924463;28;119224;-79
2023/08/19 13:25:13;;;;;;;;;;;37.30;42.50;;;37.36;24.62;98672.81;4926068;28;124856;-79
2023/08/19 13:28:13;;;;;;;;;;;37.30;43.00;;;37.22;24.42;98668.66;4919252;28;124370;-80
2023/08/19 13:31:11;;;;;;;;;;;37.10;42.30;;;37.08;24.71;98663.72;4906716;28;120127;-79
2023/08/19 13:36:43;;;;;;;;;;;36.90;43.10;;;36.78;25.40;98674.38;4946528;28;124352;-79
2023/08/19 13:39:09;;;;;;;;;;;36.70;43.40;;;36.70;26.38;98682.59;4979987;28;125273;-79
2023/08/19 13:41:36;;;;;;;;;;;36.60;44.60;;;36.58;27.84;98680.81;4979810;28;119745;-80
2023/08/19 13:45:09;;;;;;;;;;;36.60;46.40;;;36.39;28.46;98683.81;4979620;28;118794;-80